Phillips, Texas
Current Conditions -  °F | °C
As of 6:51 PM on Wednesday 17 Dec 2014 (Local Time) from KBGD Reporting Station
Overcast Overcast  
Wind Chill: 31°   Ceiling: 700
Heat Index: 38°   Visibility: 10mi
Dew Point: 34°   Wind: 10mph
Humidity: 86%   Direction: 160°SSE
Pressure: 29.98"   Gusts: NA
Location:  35.7207°N, 101.246°W
Report Text: KBGD 180051Z AUTO 16009KT 10SM OVC007 03/01 A2998 RMK AO2 RAB08E41 SLP155 P0000 T00330011
Loading
Personal Weather Stations






























Interactive Weather Map New forecast layout! Learn more

10-Day Weather Forecast

Advertisements
Track Severe Weather on mobile